METAR Data
IDs: Format: Raw Decoded Include TAF

Data at: 0231 UTC 25 Jan 2020

PFEL 250156Z AUTO 21003KT 10SM CLR M23/M25 A3020 RMK AO2 SLP234 T12281250 FZRANO
PFEL 250056Z AUTO 00000KT 10SM CLR M21/M24 A3021 RMK AO2 SLP237 T12111239 FZRANO
PFEL 242356Z AUTO 21005KT 10SM CLR M20/M23 A3021 RMK AO2 SLP236 T12001228 11200 21256 58004 FZRANO
PFEL 242256Z AUTO 00000KT 10SM CLR M22/M25 A3021 RMK AO2 SLP236 T12221250 FZRANO
PFEL 242156Z AUTO 36003KT 10SM CLR M23/M26 A3022 RMK AO2 SLP240 T12331261 FZRANO
PFEL 242056Z AUTO 19005KT 10SM CLR M24/M27 A3022 RMK AO2 SLP239 T12441267 53000 FZRANO
PFEL 241956Z AUTO 00000KT 10SM CLR M25/M28 A3022 RMK AO2 SLP239 T12501278 FZRANO
PFEL 241856Z AUTO 00000KT 10SM CLR M26/M28 A3022 RMK AO2 SLP241 T12561278 FZRANO
PFEL 241756Z AUTO 00000KT 10SM CLR M26/M28 A3022 RMK AO2 SLP240 T12561283 11233 21256 55001 FZRANO
PFEL 241656Z AUTO 21003KT 10SM CLR M25/M28 A3021 RMK AO2 SLP237 T12501278 FZRANO
PFEL 241556Z AUTO 00000KT 10SM CLR M24/M27 A3022 RMK AO2 SLP239 T12441272 FZRANO
PFEL 241456Z AUTO 00000KT 10SM CLR M24/M26 A3022 RMK AO2 SLP241 T12391261 56004 FZRANO
PFEL 241356Z AUTO 00000KT 10SM CLR M24/M27 A3023 RMK AO2 SLP242 T12441272 FZRANO
PFEL 241256Z AUTO 35003KT 10SM CLR M24/M27 A3022 RMK AO2 SLP240 T12391267 FZRANO
PFEL 241156Z AUTO 00000KT 10SM CLR M25/M28 A3023 RMK AO2 SLP244 T12501278 11233 21256 50008 FZRANO
PFEL 241056Z AUTO 23003KT 10SM CLR M26/M28 A3024 RMK AO2 SLP246 T12561278 FZRANO
PFEL 240956Z AUTO 00000KT 10SM CLR M25/M27 A3022 RMK AO2 SLP241 T12501272 FZRANO
PFEL 240856Z AUTO 00000KT 10SM CLR M23/M26 A3021 RMK AO2 SLP236 T12331256 411331244 53004 FZRANO
PFEL 240756Z AUTO 00000KT 10SM CLR M24/M27 A3020 RMK AO2 SLP234 T12391267 FZRANO
PFEL 240656Z AUTO 00000KT 10SM CLR M23/M26 A3020 RMK AO2 SLP234 T12331256 FZRANO
PFEL 240556Z AUTO 19003KT 10SM CLR M24/M27 A3020 RMK AO2 SLP232 T12441272 11150 21244 51006 FZRANO
PFEL 240456Z AUTO 00000KT 10SM CLR M23/M26 A3019 RMK AO2 SLP229 T12331256 FZRANO
PFEL 240356Z AUTO 00000KT 10SM CLR M22/M25 A3019 RMK AO2 SLP229 T12221250 FZRANO
PFEL 240256Z AUTO 00000KT 10SM CLR M21/M24 A3018 RMK AO2 SLP225 T12111239 53011 FZRANO
PFEL 240156Z AUTO 00000KT 10SM CLR M20/M23 A3017 RMK AO2 SLP221 T12001228 FZRANO
PFEL 240056Z AUTO 00000KT 10SM SCT070 M18/M21 A3016 RMK AO2 SLP218 T11781206 FZRANO
PFEL 240025Z AUTO 00000KT 10SM SCT015 OVC070 M17/M19 A3015 RMK AO2 FZRANO
PFEL 232356Z AUTO 30003KT 10SM OVC015 M15/M17 A3015 RMK AO2 SLP213 60000 T11501172 11144 21161 51013 FZRANO
PFEL 232343Z AUTO 27003KT 10SM BKN017 OVC070 M16/M17 A3015 RMK AO2 FZRANO
PFEL 232256Z AUTO 00000KT 10SM OVC070 M16/M18 A3014 RMK AO2 SNB03E12 SLP210 P0000 T11611183 FZRANO
PFEL 232233Z AUTO 00000KT 10SM SCT016 OVC070 M16/M18 A3013 RMK AO2 SNB03E12 P0000 FZRANO
PFEL 232217Z AUTO 10004KT 9SM BKN016 OVC065 M16/M18 A3013 RMK AO2 SNB03E12 P0000 FZRANO
PFEL 232156Z AUTO 19003KT 9SM FEW018 OVC065 M16/M18 A3012 RMK AO2 SNE54 SLP204 P0000 T11561178 FZRANO
PFEL 232136Z AUTO 00000KT 9SM -SN SCT018 OVC060 M16/M18 A3012 RMK AO2 P0000 FZRANO
PFEL 232104Z AUTO 00000KT 9SM -SN BKN018 OVC055 M16/M18 A3011 RMK AO2 P0000 FZRANO
PFEL 232056Z AUTO 00000KT 9SM -SN SCT020 OVC055 M16/M18 A3011 RMK AO2 SLP200 P0000 60000 T11611183 53022 FZRANO
PFEL 232006Z AUTO VRB03KT 9SM -SN SCT018 OVC050 M16/M18 A3009 RMK AO2 P0000 FZRANO
PFEL 231956Z AUTO VRB03KT 9SM -SN BKN018 OVC050 M16/M18 A3008 RMK AO2 SLP192 P0000 T11561178 FZRANO
PFEL 231856Z AUTO 00000KT 9SM -SN BKN016 OVC047 M14/M17 A3006 RMK AO2 SLP184 P0000 T11441167 FZRANO
PFEL 231756Z AUTO 00000KT 9SM -SN BKN016 OVC021 M14/M16 A3004 RMK AO2 SLP178 P0000 60000 T11441161 11133 21144 53018 FZRANO
PFEL 231656Z AUTO 00000KT 9SM -SN OVC017 M14/M16 A3002 RMK AO2 SLP171 P0000 T11441161 FZRANO
PFEL 231556Z AUTO 00000KT 9SM -SN OVC019 M14/M16 A3000 RMK AO2 SLP165 P0000 T11391156 FZRANO
PFEL 231456Z AUTO 00000KT 9SM -SN OVC017 M14/M16 A2999 RMK AO2 SLP160 P0000 60000 T11391161 51019 FZRANO